Fort Wolters, Texas
Current Conditions -  °F | °C
As of 2:53 AM on Friday 24 Oct 2014 (Local Time) from KMWL Reporting Station
Clear Clear  
Wind Chill: 61°   Ceiling: Unl
Heat Index: 61°   Visibility: 7mi
Dew Point: 56°   Wind: 7mph
Humidity: 83%   Direction: 140°SE
Pressure: 30.1"   Gusts: NA
Location:  32.7965°N, 98.1108°W
Report Text: KMWL 240753Z AUTO 14006KT 7SM CLR 16/13 A3010 RMK AO2 SLP181 T01610133
Loading
Personal Weather Stations






























Interactive Weather Map
Tropical Storm Tracking
New forecast layout! Learn more

10-Day Weather Forecast

Advertisements
Track Severe Weather on mobile